sensor_id;sensor_type;location;lat;lon;timestamp;P1;durP1;ratioP1;P2;durP2;ratioP2
3589;SDS011;1809;48.470;9.226;2024-03-06T00:00:00;7.23;;;4.27;;
3589;SDS011;1809;48.470;9.226;2024-03-06T00:02:26;5.13;;;4.00;;
3589;SDS011;1809;48.470;9.226;2024-03-06T00:04:51;5.00;;;3.97;;
3589;SDS011;1809;48.470;9.226;2024-03-06T00:07:16;5.07;;;3.80;;
3589;SDS011;1809;48.470;9.226;2024-03-06T00:09:42;8.70;;;5.90;;
3589;SDS011;1809;48.470;9.226;2024-03-06T00:12:08;5.90;;;4.83;;
3589;SDS011;1809;48.470;9.226;2024-03-06T00:14:33;9.60;;;5.50;;
3589;SDS011;1809;48.470;9.226;2024-03-06T00:17:01;8.00;;;5.80;;
3589;SDS011;1809;48.470;9.226;2024-03-06T00:19:28;6.07;;;4.90;;
3589;SDS011;1809;48.470;9.226;2024-03-06T00:21:53;7.40;;;5.10;;
3589;SDS011;1809;48.470;9.226;2024-03-06T00:24:18;7.13;;;5.50;;
3589;SDS011;1809;48.470;9.226;2024-03-06T00:26:44;6.07;;;4.93;;
3589;SDS011;1809;48.470;9.226;2024-03-06T00:29:10;12.43;;;5.40;;
3589;SDS011;1809;48.470;9.226;2024-03-06T00:31:36;7.67;;;4.97;;
3589;SDS011;1809;48.470;9.226;2024-03-06T00:34:02;8.90;;;6.63;;
3589;SDS011;1809;48.470;9.226;2024-03-06T00:36:28;8.90;;;6.70;;
3589;SDS011;1809;48.470;9.226;2024-03-06T00:38:53;9.17;;;6.30;;
3589;SDS011;1809;48.470;9.226;2024-03-06T00:41:18;9.60;;;6.97;;
3589;SDS011;1809;48.470;9.226;2024-03-06T00:43:44;7.77;;;6.07;;
3589;SDS011;1809;48.470;9.226;2024-03-06T00:46:10;6.93;;;6.20;;
3589;SDS011;1809;48.470;9.226;2024-03-06T00:48:35;7.20;;;6.47;;
3589;SDS011;1809;48.470;9.226;2024-03-06T00:51:01;8.73;;;6.40;;
3589;SDS011;1809;48.470;9.226;2024-03-06T00:53:27;5.93;;;5.43;;
3589;SDS011;1809;48.470;9.226;2024-03-06T00:55:52;9.87;;;6.97;;
3589;SDS011;1809;48.470;9.226;2024-03-06T00:58:17;8.73;;;6.63;;
3589;SDS011;1809;48.470;9.226;2024-03-06T01:00:43;9.90;;;7.83;;
3589;SDS011;1809;48.470;9.226;2024-03-06T01:03:08;7.83;;;7.13;;
3589;SDS011;1809;48.470;9.226;2024-03-06T01:05:34;9.17;;;7.40;;
3589;SDS011;1809;48.470;9.226;2024-03-06T01:07:59;8.43;;;7.57;;
3589;SDS011;1809;48.470;9.226;2024-03-06T01:10:25;8.10;;;7.10;;
3589;SDS011;1809;48.470;9.226;2024-03-06T01:12:50;7.53;;;6.73;;
3589;SDS011;1809;48.470;9.226;2024-03-06T01:15:16;7.73;;;7.03;;
3589;SDS011;1809;48.470;9.226;2024-03-06T01:17:41;10.70;;;7.37;;
3589;SDS011;1809;48.470;9.226;2024-03-06T01:20:07;7.93;;;7.00;;
3589;SDS011;1809;48.470;9.226;2024-03-06T01:22:33;8.87;;;7.17;;
3589;SDS011;1809;48.470;9.226;2024-03-06T01:24:59;9.37;;;7.30;;
3589;SDS011;1809;48.470;9.226;2024-03-06T01:27:25;9.60;;;8.40;;
3589;SDS011;1809;48.470;9.226;2024-03-06T01:29:51;10.07;;;7.90;;
3589;SDS011;1809;48.470;9.226;2024-03-06T01:32:17;8.50;;;7.77;;
3589;SDS011;1809;48.470;9.226;2024-03-06T01:34:42;9.27;;;8.20;;
3589;SDS011;1809;48.470;9.226;2024-03-06T01:37:07;8.90;;;7.50;;
3589;SDS011;1809;48.470;9.226;2024-03-06T01:39:33;9.20;;;7.40;;
3589;SDS011;1809;48.470;9.226;2024-03-06T01:42:00;9.23;;;8.20;;
3589;SDS011;1809;48.470;9.226;2024-03-06T01:44:26;9.50;;;7.43;;
3589;SDS011;1809;48.470;9.226;2024-03-06T01:46:51;8.80;;;7.90;;
3589;SDS011;1809;48.470;9.226;2024-03-06T01:49:16;8.93;;;7.50;;
3589;SDS011;1809;48.470;9.226;2024-03-06T01:51:45;8.17;;;7.37;;
3589;SDS011;1809;48.470;9.226;2024-03-06T01:54:18;11.50;;;7.63;;
3589;SDS011;1809;48.470;9.226;2024-03-06T01:56:45;15.13;;;8.00;;
3589;SDS011;1809;48.470;9.226;2024-03-06T01:59:15;8.90;;;8.03;;
3589;SDS011;1809;48.470;9.226;2024-03-06T02:01:41;9.60;;;8.60;;
3589;SDS011;1809;48.470;9.226;2024-03-06T02:04:08;8.57;;;7.77;;
3589;SDS011;1809;48.470;9.226;2024-03-06T02:06:38;10.70;;;7.07;;
3589;SDS011;1809;48.470;9.226;2024-03-06T02:09:04;7.83;;;7.03;;
3589;SDS011;1809;48.470;9.226;2024-03-06T02:11:29;7.27;;;6.50;;
3589;SDS011;1809;48.470;9.226;2024-03-06T02:13:55;7.97;;;6.60;;
3589;SDS011;1809;48.470;9.226;2024-03-06T02:16:21;6.83;;;6.17;;
3589;SDS011;1809;48.470;9.226;2024-03-06T02:18:55;6.80;;;6.10;;
3589;SDS011;1809;48.470;9.226;2024-03-06T02:21:25;9.40;;;6.73;;
3589;SDS011;1809;48.470;9.226;2024-03-06T02:23:50;7.43;;;5.97;;
3589;SDS011;1809;48.470;9.226;2024-03-06T02:26:20;7.83;;;6.70;;
3589;SDS011;1809;48.470;9.226;2024-03-06T02:28:47;6.53;;;5.93;;
3589;SDS011;1809;48.470;9.226;2024-03-06T02:31:12;4.83;;;4.43;;
3589;SDS011;1809;48.470;9.226;2024-03-06T02:33:38;8.30;;;5.10;;
3589;SDS011;1809;48.470;9.226;2024-03-06T02:36:04;4.60;;;4.30;;
3589;SDS011;1809;48.470;9.226;2024-03-06T02:38:30;6.33;;;5.20;;
3589;SDS011;1809;48.470;9.226;2024-03-06T02:40:56;5.30;;;4.87;;
3589;SDS011;1809;48.470;9.226;2024-03-06T02:43:21;4.70;;;4.20;;
3589;SDS011;1809;48.470;9.226;2024-03-06T02:45:46;5.70;;;4.33;;
3589;SDS011;1809;48.470;9.226;2024-03-06T02:48:12;6.17;;;4.27;;
3589;SDS011;1809;48.470;9.226;2024-03-06T02:50:37;4.80;;;4.37;;
3589;SDS011;1809;48.470;9.226;2024-03-06T02:53:02;7.07;;;4.30;;
3589;SDS011;1809;48.470;9.226;2024-03-06T02:55:28;4.63;;;4.33;;
3589;SDS011;1809;48.470;9.226;2024-03-06T02:57:53;5.20;;;4.70;;
3589;SDS011;1809;48.470;9.226;2024-03-06T03:00:18;5.90;;;5.40;;
3589;SDS011;1809;48.470;9.226;2024-03-06T03:02:44;6.47;;;5.83;;
3589;SDS011;1809;48.470;9.226;2024-03-06T03:05:09;10.03;;;5.60;;
3589;SDS011;1809;48.470;9.226;2024-03-06T03:07:34;5.37;;;4.97;;
3589;SDS011;1809;48.470;9.226;2024-03-06T03:10:00;7.07;;;5.67;;
3589;SDS011;1809;48.470;9.226;2024-03-06T03:12:25;5.83;;;5.33;;
3589;SDS011;1809;48.470;9.226;2024-03-06T03:14:50;9.80;;;6.13;;
3589;SDS011;1809;48.470;9.226;2024-03-06T03:17:17;7.70;;;5.80;;
3589;SDS011;1809;48.470;9.226;2024-03-06T03:19:44;5.07;;;4.67;;
3589;SDS011;1809;48.470;9.226;2024-03-06T03:22:10;6.40;;;5.57;;
3589;SDS011;1809;48.470;9.226;2024-03-06T03:24:35;10.47;;;6.43;;
3589;SDS011;1809;48.470;9.226;2024-03-06T03:27:01;7.97;;;6.30;;
3589;SDS011;1809;48.470;9.226;2024-03-06T03:29:27;6.80;;;5.70;;
3589;SDS011;1809;48.470;9.226;2024-03-06T03:31:52;7.77;;;6.43;;
3589;SDS011;1809;48.470;9.226;2024-03-06T03:34:18;8.30;;;6.50;;
3589;SDS011;1809;48.470;9.226;2024-03-06T03:36:43;7.47;;;6.50;;
3589;SDS011;1809;48.470;9.226;2024-03-06T03:39:10;6.87;;;5.20;;
3589;SDS011;1809;48.470;9.226;2024-03-06T03:41:42;7.43;;;6.43;;
3589;SDS011;1809;48.470;9.226;2024-03-06T03:44:14;6.70;;;6.07;;
3589;SDS011;1809;48.470;9.226;2024-03-06T03:46:40;7.17;;;6.37;;
3589;SDS011;1809;48.470;9.226;2024-03-06T03:49:05;8.97;;;6.20;;
3589;SDS011;1809;48.470;9.226;2024-03-06T03:51:31;8.20;;;6.40;;
3589;SDS011;1809;48.470;9.226;2024-03-06T03:53:56;8.07;;;6.27;;
3589;SDS011;1809;48.470;9.226;2024-03-06T03:56:22;7.37;;;6.57;;
3589;SDS011;1809;48.470;9.226;2024-03-06T03:58:47;14.40;;;6.50;;
3589;SDS011;1809;48.470;9.226;2024-03-06T04:01:12;7.00;;;6.30;;
3589;SDS011;1809;48.470;9.226;2024-03-06T04:03:38;6.63;;;6.03;;
3589;SDS011;1809;48.470;9.226;2024-03-06T04:06:03;6.87;;;5.67;;
3589;SDS011;1809;48.470;9.226;2024-03-06T04:08:29;6.60;;;5.57;;
3589;SDS011;1809;48.470;9.226;2024-03-06T04:10:54;8.27;;;6.17;;
3589;SDS011;1809;48.470;9.226;2024-03-06T04:13:19;6.53;;;5.83;;
3589;SDS011;1809;48.470;9.226;2024-03-06T04:15:45;9.80;;;6.40;;
3589;SDS011;1809;48.470;9.226;2024-03-06T04:18:11;9.53;;;6.73;;
3589;SDS011;1809;48.470;9.226;2024-03-06T04:20:36;9.37;;;6.87;;
3589;SDS011;1809;48.470;9.226;2024-03-06T04:23:02;9.13;;;5.60;;
3589;SDS011;1809;48.470;9.226;2024-03-06T04:25:27;7.73;;;5.77;;
3589;SDS011;1809;48.470;9.226;2024-03-06T04:27:53;7.10;;;5.90;;
3589;SDS011;1809;48.470;9.226;2024-03-06T04:30:18;6.37;;;5.73;;
3589;SDS011;1809;48.470;9.226;2024-03-06T04:32:44;9.27;;;6.53;;
3589;SDS011;1809;48.470;9.226;2024-03-06T04:35:09;9.07;;;5.43;;
3589;SDS011;1809;48.470;9.226;2024-03-06T04:37:35;8.53;;;5.50;;
3589;SDS011;1809;48.470;9.226;2024-03-06T04:40:01;6.53;;;5.07;;
3589;SDS011;1809;48.470;9.226;2024-03-06T04:42:27;6.67;;;6.07;;
3589;SDS011;1809;48.470;9.226;2024-03-06T04:44:53;6.73;;;5.30;;
3589;SDS011;1809;48.470;9.226;2024-03-06T04:47:18;7.93;;;6.10;;
3589;SDS011;1809;48.470;9.226;2024-03-06T04:49:44;10.00;;;6.40;;
3589;SDS011;1809;48.470;9.226;2024-03-06T04:52:09;8.57;;;6.00;;
3589;SDS011;1809;48.470;9.226;2024-03-06T04:54:35;8.07;;;5.47;;
3589;SDS011;1809;48.470;9.226;2024-03-06T04:57:00;6.70;;;5.80;;
3589;SDS011;1809;48.470;9.226;2024-03-06T04:59:25;7.13;;;5.77;;
3589;SDS011;1809;48.470;9.226;2024-03-06T05:01:51;5.50;;;5.00;;
3589;SDS011;1809;48.470;9.226;2024-03-06T05:04:17;7.17;;;6.47;;
3589;SDS011;1809;48.470;9.226;2024-03-06T05:06:42;8.37;;;5.57;;
3589;SDS011;1809;48.470;9.226;2024-03-06T05:09:08;6.87;;;5.20;;
3589;SDS011;1809;48.470;9.226;2024-03-06T05:11:36;9.03;;;5.20;;
3589;SDS011;1809;48.470;9.226;2024-03-06T05:14:03;4.93;;;4.47;;
3589;SDS011;1809;48.470;9.226;2024-03-06T05:16:28;5.97;;;5.30;;
3589;SDS011;1809;48.470;9.226;2024-03-06T05:18:53;6.50;;;4.73;;
3589;SDS011;1809;48.470;9.226;2024-03-06T05:21:19;9.40;;;6.20;;
3589;SDS011;1809;48.470;9.226;2024-03-06T05:23:47;9.30;;;5.30;;
3589;SDS011;1809;48.470;9.226;2024-03-06T05:26:12;9.20;;;5.70;;
3589;SDS011;1809;48.470;9.226;2024-03-06T05:28:38;7.93;;;5.70;;
3589;SDS011;1809;48.470;9.226;2024-03-06T05:31:15;9.63;;;5.90;;
3589;SDS011;1809;48.470;9.226;2024-03-06T05:33:44;7.23;;;5.63;;
3589;SDS011;1809;48.470;9.226;2024-03-06T05:36:11;6.63;;;5.77;;
3589;SDS011;1809;48.470;9.226;2024-03-06T05:38:38;7.50;;;5.90;;
3589;SDS011;1809;48.470;9.226;2024-03-06T05:41:04;7.27;;;5.90;;
3589;SDS011;1809;48.470;9.226;2024-03-06T05:43:29;6.50;;;5.87;;
3589;SDS011;1809;48.470;9.226;2024-03-06T05:45:54;9.50;;;6.30;;
3589;SDS011;1809;48.470;9.226;2024-03-06T05:48:20;11.93;;;6.70;;
3589;SDS011;1809;48.470;9.226;2024-03-06T05:50:45;6.73;;;5.70;;
3589;SDS011;1809;48.470;9.226;2024-03-06T05:53:10;12.43;;;6.97;;
3589;SDS011;1809;48.470;9.226;2024-03-06T05:55:36;10.87;;;7.23;;
3589;SDS011;1809;48.470;9.226;2024-03-06T05:58:02;9.80;;;6.23;;
3589;SDS011;1809;48.470;9.226;2024-03-06T06:00:27;9.43;;;7.23;;
3589;SDS011;1809;48.470;9.226;2024-03-06T06:02:52;12.07;;;7.20;;
3589;SDS011;1809;48.470;9.226;2024-03-06T06:05:18;10.83;;;7.20;;
3589;SDS011;1809;48.470;9.226;2024-03-06T06:07:47;13.33;;;7.90;;
3589;SDS011;1809;48.470;9.226;2024-03-06T06:10:13;10.93;;;7.80;;
3589;SDS011;1809;48.470;9.226;2024-03-06T06:12:38;14.30;;;8.37;;
3589;SDS011;1809;48.470;9.226;2024-03-06T06:15:04;11.90;;;7.60;;
3589;SDS011;1809;48.470;9.226;2024-03-06T06:17:32;12.33;;;8.00;;
3589;SDS011;1809;48.470;9.226;2024-03-06T06:19:57;10.30;;;8.30;;
3589;SDS011;1809;48.470;9.226;2024-03-06T06:22:23;13.70;;;7.70;;
3589;SDS011;1809;48.470;9.226;2024-03-06T06:24:48;10.97;;;8.50;;
3589;SDS011;1809;48.470;9.226;2024-03-06T06:27:14;9.70;;;7.77;;
3589;SDS011;1809;48.470;9.226;2024-03-06T06:29:40;12.40;;;8.27;;
3589;SDS011;1809;48.470;9.226;2024-03-06T06:32:06;13.13;;;8.90;;
3589;SDS011;1809;48.470;9.226;2024-03-06T06:34:32;12.23;;;7.57;;
3589;SDS011;1809;48.470;9.226;2024-03-06T06:36:57;17.40;;;8.23;;
3589;SDS011;1809;48.470;9.226;2024-03-06T06:39:22;10.50;;;7.90;;
3589;SDS011;1809;48.470;9.226;2024-03-06T06:41:48;13.53;;;8.50;;
3589;SDS011;1809;48.470;9.226;2024-03-06T06:44:13;12.20;;;8.27;;
3589;SDS011;1809;48.470;9.226;2024-03-06T06:46:38;11.40;;;7.73;;
3589;SDS011;1809;48.470;9.226;2024-03-06T06:49:04;9.73;;;7.90;;
3589;SDS011;1809;48.470;9.226;2024-03-06T06:51:30;17.07;;;8.63;;
3589;SDS011;1809;48.470;9.226;2024-03-06T06:53:56;17.20;;;10.20;;
3589;SDS011;1809;48.470;9.226;2024-03-06T06:56:21;15.73;;;10.40;;
3589;SDS011;1809;48.470;9.226;2024-03-06T06:58:49;16.67;;;10.50;;
3589;SDS011;1809;48.470;9.226;2024-03-06T07:01:14;17.77;;;9.80;;
3589;SDS011;1809;48.470;9.226;2024-03-06T07:03:41;14.73;;;9.47;;
3589;SDS011;1809;48.470;9.226;2024-03-06T07:06:07;13.00;;;9.50;;
3589;SDS011;1809;48.470;9.226;2024-03-06T07:08:33;12.70;;;9.03;;
3589;SDS011;1809;48.470;9.226;2024-03-06T07:10:58;15.10;;;8.30;;
3589;SDS011;1809;48.470;9.226;2024-03-06T07:13:23;10.30;;;8.57;;
3589;SDS011;1809;48.470;9.226;2024-03-06T07:15:49;19.07;;;9.33;;
3589;SDS011;1809;48.470;9.226;2024-03-06T07:18:14;14.30;;;7.27;;
3589;SDS011;1809;48.470;9.226;2024-03-06T07:20:40;16.23;;;7.90;;
3589;SDS011;1809;48.470;9.226;2024-03-06T07:23:06;12.90;;;7.93;;
3589;SDS011;1809;48.470;9.226;2024-03-06T07:25:31;11.30;;;8.60;;
3589;SDS011;1809;48.470;9.226;2024-03-06T07:27:56;13.13;;;8.33;;
3589;SDS011;1809;48.470;9.226;2024-03-06T07:30:22;13.00;;;8.87;;
3589;SDS011;1809;48.470;9.226;2024-03-06T07:32:48;13.93;;;8.40;;
3589;SDS011;1809;48.470;9.226;2024-03-06T07:35:13;12.60;;;9.10;;
3589;SDS011;1809;48.470;9.226;2024-03-06T07:37:39;11.33;;;8.80;;
3589;SDS011;1809;48.470;9.226;2024-03-06T07:40:05;15.60;;;9.30;;
3589;SDS011;1809;48.470;9.226;2024-03-06T07:42:31;12.33;;;7.43;;
3589;SDS011;1809;48.470;9.226;2024-03-06T07:44:58;16.67;;;8.50;;
3589;SDS011;1809;48.470;9.226;2024-03-06T07:47:23;11.37;;;8.20;;
3589;SDS011;1809;48.470;9.226;2024-03-06T07:49:49;23.43;;;10.47;;
3589;SDS011;1809;48.470;9.226;2024-03-06T07:52:15;12.10;;;7.53;;
3589;SDS011;1809;48.470;9.226;2024-03-06T07:54:41;16.20;;;7.63;;
3589;SDS011;1809;48.470;9.226;2024-03-06T07:57:06;9.93;;;7.40;;
3589;SDS011;1809;48.470;9.226;2024-03-06T07:59:31;17.90;;;7.77;;
3589;SDS011;1809;48.470;9.226;2024-03-06T08:01:57;14.30;;;8.90;;
3589;SDS011;1809;48.470;9.226;2024-03-06T08:04:22;15.20;;;8.20;;
3589;SDS011;1809;48.470;9.226;2024-03-06T08:06:48;9.27;;;7.77;;
3589;SDS011;1809;48.470;9.226;2024-03-06T08:09:14;11.60;;;7.63;;
3589;SDS011;1809;48.470;9.226;2024-03-06T08:11:41;10.30;;;7.33;;
3589;SDS011;1809;48.470;9.226;2024-03-06T08:14:07;19.57;;;8.00;;
3589;SDS011;1809;48.470;9.226;2024-03-06T08:16:32;8.83;;;7.03;;
3589;SDS011;1809;48.470;9.226;2024-03-06T08:18:59;12.53;;;8.60;;
3589;SDS011;1809;48.470;9.226;2024-03-06T08:21:25;10.10;;;7.30;;
3589;SDS011;1809;48.470;9.226;2024-03-06T08:23:50;13.13;;;7.83;;
3589;SDS011;1809;48.470;9.226;2024-03-06T08:26:16;12.77;;;8.53;;
3589;SDS011;1809;48.470;9.226;2024-03-06T08:28:41;13.40;;;8.80;;
3589;SDS011;1809;48.470;9.226;2024-03-06T08:31:06;15.13;;;9.23;;
3589;SDS011;1809;48.470;9.226;2024-03-06T08:33:33;18.43;;;8.80;;
3589;SDS011;1809;48.470;9.226;2024-03-06T08:35:59;17.70;;;12.20;;
3589;SDS011;1809;48.470;9.226;2024-03-06T08:38:24;24.73;;;11.60;;
3589;SDS011;1809;48.470;9.226;2024-03-06T08:40:50;12.03;;;8.07;;
3589;SDS011;1809;48.470;9.226;2024-03-06T08:43:15;12.90;;;8.40;;
3589;SDS011;1809;48.470;9.226;2024-03-06T08:45:41;15.17;;;8.97;;
3589;SDS011;1809;48.470;9.226;2024-03-06T08:48:07;15.47;;;9.47;;
3589;SDS011;1809;48.470;9.226;2024-03-06T08:50:32;14.57;;;8.83;;
3589;SDS011;1809;48.470;9.226;2024-03-06T08:52:58;11.20;;;8.53;;
3589;SDS011;1809;48.470;9.226;2024-03-06T08:55:23;14.13;;;9.13;;
3589;SDS011;1809;48.470;9.226;2024-03-06T08:57:49;11.20;;;8.77;;
3589;SDS011;1809;48.470;9.226;2024-03-06T09:00:15;12.00;;;9.10;;
3589;SDS011;1809;48.470;9.226;2024-03-06T09:02:42;14.90;;;8.93;;
3589;SDS011;1809;48.470;9.226;2024-03-06T09:05:07;12.00;;;8.73;;
3589;SDS011;1809;48.470;9.226;2024-03-06T09:07:35;11.80;;;9.20;;
3589;SDS011;1809;48.470;9.226;2024-03-06T09:10:05;13.57;;;9.43;;
3589;SDS011;1809;48.470;9.226;2024-03-06T09:12:35;15.10;;;10.53;;
3589;SDS011;1809;48.470;9.226;2024-03-06T09:15:01;11.80;;;9.97;;
3589;SDS011;1809;48.470;9.226;2024-03-06T09:17:27;16.00;;;9.53;;
3589;SDS011;1809;48.470;9.226;2024-03-06T09:19:53;15.00;;;10.40;;
3589;SDS011;1809;48.470;9.226;2024-03-06T09:22:19;13.80;;;10.17;;
3589;SDS011;1809;48.470;9.226;2024-03-06T09:24:44;19.90;;;9.90;;
3589;SDS011;1809;48.470;9.226;2024-03-06T09:27:10;11.90;;;8.90;;
3589;SDS011;1809;48.470;9.226;2024-03-06T09:29:35;16.13;;;9.40;;
3589;SDS011;1809;48.470;9.226;2024-03-06T09:32:01;17.17;;;10.77;;
3589;SDS011;1809;48.470;9.226;2024-03-06T09:34:26;15.00;;;9.80;;
3589;SDS011;1809;48.470;9.226;2024-03-06T09:36:51;12.17;;;9.40;;
3589;SDS011;1809;48.470;9.226;2024-03-06T09:39:18;19.73;;;11.10;;
3589;SDS011;1809;48.470;9.226;2024-03-06T09:41:46;12.73;;;10.10;;
3589;SDS011;1809;48.470;9.226;2024-03-06T09:44:12;12.17;;;8.97;;
3589;SDS011;1809;48.470;9.226;2024-03-06T09:46:39;12.80;;;9.60;;
3589;SDS011;1809;48.470;9.226;2024-03-06T09:49:19;14.33;;;8.77;;
3589;SDS011;1809;48.470;9.226;2024-03-06T09:51:45;15.23;;;8.60;;
3589;SDS011;1809;48.470;9.226;2024-03-06T09:54:12;17.80;;;11.03;;
3589;SDS011;1809;48.470;9.226;2024-03-06T09:56:44;11.10;;;8.13;;
3589;SDS011;1809;48.470;9.226;2024-03-06T09:59:10;14.03;;;9.40;;
3589;SDS011;1809;48.470;9.226;2024-03-06T10:04:35;14.10;;;8.80;;
3589;SDS011;1809;48.470;9.226;2024-03-06T10:07:02;12.73;;;7.93;;
3589;SDS011;1809;48.470;9.226;2024-03-06T10:09:27;14.27;;;8.20;;
3589;SDS011;1809;48.470;9.226;2024-03-06T10:11:54;12.23;;;8.40;;
3589;SDS011;1809;48.470;9.226;2024-03-06T10:14:21;12.80;;;7.90;;
3589;SDS011;1809;48.470;9.226;2024-03-06T10:17:00;11.10;;;8.30;;
3589;SDS011;1809;48.470;9.226;2024-03-06T10:19:26;11.23;;;7.53;;
3589;SDS011;1809;48.470;9.226;2024-03-06T10:21:53;11.87;;;9.70;;
3589;SDS011;1809;48.470;9.226;2024-03-06T10:24:23;17.00;;;10.77;;
3589;SDS011;1809;48.470;9.226;2024-03-06T10:26:49;21.50;;;10.07;;
3589;SDS011;1809;48.470;9.226;2024-03-06T10:29:16;12.97;;;9.20;;
3589;SDS011;1809;48.470;9.226;2024-03-06T10:31:53;16.77;;;9.90;;
3589;SDS011;1809;48.470;9.226;2024-03-06T10:34:23;19.17;;;9.73;;
3589;SDS011;1809;48.470;9.226;2024-03-06T10:37:01;24.03;;;11.13;;
3589;SDS011;1809;48.470;9.226;2024-03-06T10:39:32;15.47;;;9.27;;
3589;SDS011;1809;48.470;9.226;2024-03-06T10:41:59;18.57;;;10.80;;
3589;SDS011;1809;48.470;9.226;2024-03-06T10:44:27;13.43;;;9.57;;
3589;SDS011;1809;48.470;9.226;2024-03-06T10:46:58;18.73;;;9.23;;
3589;SDS011;1809;48.470;9.226;2024-03-06T10:49:25;17.83;;;10.50;;
3589;SDS011;1809;48.470;9.226;2024-03-06T10:51:53;19.23;;;10.80;;
3589;SDS011;1809;48.470;9.226;2024-03-06T10:54:22;18.57;;;11.83;;
3589;SDS011;1809;48.470;9.226;2024-03-06T10:56:51;21.07;;;12.20;;
3589;SDS011;1809;48.470;9.226;2024-03-06T10:59:18;16.83;;;11.60;;
3589;SDS011;1809;48.470;9.226;2024-03-06T11:01:45;17.23;;;11.10;;
3589;SDS011;1809;48.470;9.226;2024-03-06T11:04:12;23.50;;;10.90;;
3589;SDS011;1809;48.470;9.226;2024-03-06T11:06:38;19.50;;;12.23;;
3589;SDS011;1809;48.470;9.226;2024-03-06T11:09:04;21.47;;;12.03;;
3589;SDS011;1809;48.470;9.226;2024-03-06T11:11:31;19.37;;;11.40;;
3589;SDS011;1809;48.470;9.226;2024-03-06T11:14:00;21.60;;;12.13;;
3589;SDS011;1809;48.470;9.226;2024-03-06T11:16:31;19.43;;;11.73;;
3589;SDS011;1809;48.470;9.226;2024-03-06T11:19:05;18.70;;;11.67;;
3589;SDS011;1809;48.470;9.226;2024-03-06T11:21:34;19.23;;;12.50;;
3589;SDS011;1809;48.470;9.226;2024-03-06T11:29:16;19.67;;;13.13;;
3589;SDS011;1809;48.470;9.226;2024-03-06T11:31:57;21.97;;;13.13;;
3589;SDS011;1809;48.470;9.226;2024-03-06T11:34:32;23.30;;;14.73;;
3589;SDS011;1809;48.470;9.226;2024-03-06T11:36:58;22.03;;;12.90;;
3589;SDS011;1809;48.470;9.226;2024-03-06T11:39:32;22.20;;;13.60;;
3589;SDS011;1809;48.470;9.226;2024-03-06T11:41:59;25.90;;;13.50;;
3589;SDS011;1809;48.470;9.226;2024-03-06T11:44:26;26.10;;;14.27;;
3589;SDS011;1809;48.470;9.226;2024-03-06T11:49:26;22.63;;;14.47;;
3589;SDS011;1809;48.470;9.226;2024-03-06T11:51:59;21.90;;;14.40;;
3589;SDS011;1809;48.470;9.226;2024-03-06T11:54:26;22.90;;;14.00;;
3589;SDS011;1809;48.470;9.226;2024-03-06T11:56:58;28.13;;;14.47;;
3589;SDS011;1809;48.470;9.226;2024-03-06T12:01:51;23.90;;;13.73;;
3589;SDS011;1809;48.470;9.226;2024-03-06T12:04:33;23.67;;;14.30;;
3589;SDS011;1809;48.470;9.226;2024-03-06T12:07:03;28.00;;;15.30;;
3589;SDS011;1809;48.470;9.226;2024-03-06T12:09:33;19.20;;;13.07;;
3589;SDS011;1809;48.470;9.226;2024-03-06T12:11:59;23.20;;;13.47;;
3589;SDS011;1809;48.470;9.226;2024-03-06T12:14:25;24.40;;;13.33;;
3589;SDS011;1809;48.470;9.226;2024-03-06T12:17:00;22.57;;;13.63;;
3589;SDS011;1809;48.470;9.226;2024-03-06T12:19:32;23.73;;;13.87;;
3589;SDS011;1809;48.470;9.226;2024-03-06T12:21:59;20.40;;;11.60;;
3589;SDS011;1809;48.470;9.226;2024-03-06T12:24:25;22.20;;;13.50;;
3589;SDS011;1809;48.470;9.226;2024-03-06T12:27:01;22.80;;;14.47;;
3589;SDS011;1809;48.470;9.226;2024-03-06T12:29:28;23.90;;;15.63;;
3589;SDS011;1809;48.470;9.226;2024-03-06T12:31:58;20.27;;;13.20;;
3589;SDS011;1809;48.470;9.226;2024-03-06T12:34:24;24.47;;;13.07;;
3589;SDS011;1809;48.470;9.226;2024-03-06T12:36:50;25.93;;;14.60;;
3589;SDS011;1809;48.470;9.226;2024-03-06T12:39:16;23.47;;;14.40;;
3589;SDS011;1809;48.470;9.226;2024-03-06T12:41:46;28.03;;;15.20;;
3589;SDS011;1809;48.470;9.226;2024-03-06T12:44:12;22.03;;;15.50;;
3589;SDS011;1809;48.470;9.226;2024-03-06T12:46:38;22.43;;;14.87;;
3589;SDS011;1809;48.470;9.226;2024-03-06T12:49:03;26.00;;;15.73;;
3589;SDS011;1809;48.470;9.226;2024-03-06T12:51:29;29.80;;;16.40;;
3589;SDS011;1809;48.470;9.226;2024-03-06T12:53:54;28.67;;;16.70;;
3589;SDS011;1809;48.470;9.226;2024-03-06T12:56:19;26.93;;;15.80;;
3589;SDS011;1809;48.470;9.226;2024-03-06T12:58:45;29.67;;;15.83;;
3589;SDS011;1809;48.470;9.226;2024-03-06T13:01:10;25.37;;;16.00;;
3589;SDS011;1809;48.470;9.226;2024-03-06T13:03:36;23.00;;;13.97;;
3589;SDS011;1809;48.470;9.226;2024-03-06T13:06:02;25.63;;;14.83;;
3589;SDS011;1809;48.470;9.226;2024-03-06T13:08:29;20.73;;;14.07;;
3589;SDS011;1809;48.470;9.226;2024-03-06T13:10:54;25.20;;;14.07;;
3589;SDS011;1809;48.470;9.226;2024-03-06T13:13:21;25.23;;;13.80;;
3589;SDS011;1809;48.470;9.226;2024-03-06T13:15:48;28.70;;;15.80;;
3589;SDS011;1809;48.470;9.226;2024-03-06T13:18:14;27.87;;;17.80;;
3589;SDS011;1809;48.470;9.226;2024-03-06T13:20:40;27.90;;;16.27;;
3589;SDS011;1809;48.470;9.226;2024-03-06T13:23:06;24.03;;;14.73;;
3589;SDS011;1809;48.470;9.226;2024-03-06T13:25:31;31.47;;;18.37;;
3589;SDS011;1809;48.470;9.226;2024-03-06T13:27:56;30.33;;;17.03;;
3589;SDS011;1809;48.470;9.226;2024-03-06T13:30:22;29.77;;;17.33;;
3589;SDS011;1809;48.470;9.226;2024-03-06T13:32:48;28.67;;;16.57;;
3589;SDS011;1809;48.470;9.226;2024-03-06T13:35:13;27.27;;;16.77;;
3589;SDS011;1809;48.470;9.226;2024-03-06T13:37:39;29.40;;;17.03;;
3589;SDS011;1809;48.470;9.226;2024-03-06T13:40:06;23.57;;;15.10;;
3589;SDS011;1809;48.470;9.226;2024-03-06T13:42:33;28.90;;;16.67;;
3589;SDS011;1809;48.470;9.226;2024-03-06T13:44:59;31.40;;;18.80;;
3589;SDS011;1809;48.470;9.226;2024-03-06T13:47:24;27.80;;;15.67;;
3589;SDS011;1809;48.470;9.226;2024-03-06T13:49:50;24.30;;;15.17;;
3589;SDS011;1809;48.470;9.226;2024-03-06T13:52:16;21.93;;;14.47;;
3589;SDS011;1809;48.470;9.226;2024-03-06T13:54:45;28.63;;;14.73;;
3589;SDS011;1809;48.470;9.226;2024-03-06T13:57:10;24.40;;;15.83;;
3589;SDS011;1809;48.470;9.226;2024-03-06T13:59:36;33.70;;;19.03;;
3589;SDS011;1809;48.470;9.226;2024-03-06T14:02:02;34.43;;;19.07;;
3589;SDS011;1809;48.470;9.226;2024-03-06T14:04:28;37.70;;;20.43;;
3589;SDS011;1809;48.470;9.226;2024-03-06T14:06:54;28.70;;;17.27;;
3589;SDS011;1809;48.470;9.226;2024-03-06T14:09:22;31.60;;;17.70;;
3589;SDS011;1809;48.470;9.226;2024-03-06T14:11:48;25.33;;;16.90;;
3589;SDS011;1809;48.470;9.226;2024-03-06T14:14:17;24.53;;;15.17;;
3589;SDS011;1809;48.470;9.226;2024-03-06T14:16:43;25.33;;;15.33;;
3589;SDS011;1809;48.470;9.226;2024-03-06T14:19:09;23.10;;;14.53;;
3589;SDS011;1809;48.470;9.226;2024-03-06T14:21:35;20.50;;;14.40;;
3589;SDS011;1809;48.470;9.226;2024-03-06T14:24:01;27.27;;;16.03;;
3589;SDS011;1809;48.470;9.226;2024-03-06T14:26:30;32.43;;;17.47;;
3589;SDS011;1809;48.470;9.226;2024-03-06T14:28:56;27.70;;;16.93;;
3589;SDS011;1809;48.470;9.226;2024-03-06T14:31:22;28.53;;;16.07;;
3589;SDS011;1809;48.470;9.226;2024-03-06T14:33:48;23.60;;;15.47;;
3589;SDS011;1809;48.470;9.226;2024-03-06T14:36:14;32.10;;;18.10;;
3589;SDS011;1809;48.470;9.226;2024-03-06T14:38:39;27.97;;;16.93;;
3589;SDS011;1809;48.470;9.226;2024-03-06T14:41:05;34.20;;;19.37;;
3589;SDS011;1809;48.470;9.226;2024-03-06T14:43:32;27.37;;;15.73;;
3589;SDS011;1809;48.470;9.226;2024-03-06T14:45:59;27.30;;;16.37;;
3589;SDS011;1809;48.470;9.226;2024-03-06T14:48:25;30.47;;;18.40;;
3589;SDS011;1809;48.470;9.226;2024-03-06T14:50:50;28.90;;;17.67;;
3589;SDS011;1809;48.470;9.226;2024-03-06T14:53:16;25.77;;;15.63;;
3589;SDS011;1809;48.470;9.226;2024-03-06T14:55:41;23.20;;;14.57;;
3589;SDS011;1809;48.470;9.226;2024-03-06T14:58:07;26.67;;;17.17;;
3589;SDS011;1809;48.470;9.226;2024-03-06T15:00:32;26.63;;;15.60;;
3589;SDS011;1809;48.470;9.226;2024-03-06T15:02:58;24.13;;;15.10;;
3589;SDS011;1809;48.470;9.226;2024-03-06T15:05:25;28.10;;;14.80;;
3589;SDS011;1809;48.470;9.226;2024-03-06T15:07:51;26.07;;;16.93;;
3589;SDS011;1809;48.470;9.226;2024-03-06T15:10:16;26.20;;;16.53;;